Time;durP1;ratioP1;P1;durP2;ratioP2;P2;SDS_P1;SDS_P2;PMS_P1;PMS_P2;Temp;Humidity;BMP_temperature;BMP_pressure;BME280_temperature;BME280_humidity;BME280_pressure;Samples;Min_cycle;Max_cycle;Signal;HPM_P1;HPM_P2
2023/05/02 00:02:12;0.00;0.00;0.62;0.00;0.00;0.62;1.50;0.90;;;27.20;22.40;;;;;;2261464;61;20416;-63
2023/05/02 00:04:57;0.00;0.00;0.62;0.00;0.00;0.62;1.40;0.80;;;27.30;22.40;;;;;;2260895;61;20381;-63
2023/05/02 00:07:43;0.00;0.00;0.62;0.00;0.00;0.62;1.50;0.90;;;27.30;22.40;;;;;;2261451;61;20393;-63
2023/05/02 00:10:27;0.00;0.00;0.62;0.00;0.00;0.62;1.40;0.87;;;27.30;22.40;;;;;;2261309;61;20377;-62
2023/05/02 00:13:12;0.00;0.00;0.62;0.00;0.00;0.62;1.43;0.90;;;27.20;22.90;;;;;;2261147;61;20345;-63
2023/05/02 00:15:57;0.00;0.00;0.62;0.00;0.00;0.62;1.90;0.90;;;27.20;22.40;;;;;;2261222;61;20344;-63
2023/05/02 00:18:42;0.00;0.00;0.62;0.00;0.00;0.62;1.30;0.80;;;27.20;22.40;;;;;;2261293;61;20376;-62
2023/05/02 00:21:28;0.00;0.00;0.62;0.00;0.00;0.62;1.53;0.87;;;27.20;22.40;;;;;;2261356;61;20427;-62
2023/05/02 00:24:14;0.00;0.00;0.62;0.00;0.00;0.62;1.70;0.90;;;27.20;22.40;;;;;;2261004;61;20870;-62
2023/05/02 00:26:59;0.00;0.00;0.62;0.00;0.00;0.62;1.40;0.90;;;27.20;22.40;;;;;;2261303;61;20925;-63
2023/05/02 00:29:44;0.00;0.00;0.62;0.00;0.00;0.62;1.77;1.00;;;27.20;22.40;;;;;;2260690;61;20400;-62
2023/05/02 00:32:29;0.00;0.00;0.62;0.00;0.00;0.62;1.30;0.73;;;27.20;22.40;;;;;;2260816;61;20346;-62
2023/05/02 00:35:13;0.00;0.00;0.62;0.00;0.00;0.62;1.33;0.70;;;27.20;22.40;;;;;;2261172;61;20441;-62
2023/05/02 00:37:59;0.00;0.00;0.62;0.00;0.00;0.62;1.40;0.80;;;27.20;22.40;;;;;;2261169;61;20341;-62
2023/05/02 00:40:47;0.00;0.00;0.62;0.00;0.00;0.62;1.40;0.90;;;27.20;22.40;;;;;;2260807;61;20388;-62
2023/05/02 00:43:31;0.00;0.00;0.62;0.00;0.00;0.62;1.53;0.97;;;27.20;22.40;;;;;;2261062;61;20901;-62
2023/05/02 00:46:16;0.00;0.00;0.62;0.00;0.00;0.62;2.10;1.17;;;27.20;22.90;;;;;;2258062;61;20365;-63
2023/05/02 00:49:01;0.00;0.00;0.62;0.00;0.00;0.62;2.30;1.00;;;27.10;22.30;;;;;;2261134;61;20870;-62
2023/05/02 00:51:46;0.00;0.00;0.62;0.00;0.00;0.62;1.33;0.90;;;27.20;22.40;;;;;;2261482;61;20341;-62
2023/05/02 00:54:31;0.00;0.00;0.62;0.00;0.00;0.62;1.40;0.90;;;27.20;22.40;;;;;;2261051;61;20396;-62
2023/05/02 00:57:17;0.00;0.00;0.62;0.00;0.00;0.62;1.50;0.87;;;27.20;22.40;;;;;;2261049;61;20353;-63
2023/05/02 01:00:03;0.00;0.00;0.62;0.00;0.00;0.62;1.53;1.00;;;27.20;22.40;;;;;;2261093;61;20876;-62
2023/05/02 01:03:02;0.00;0.00;0.62;0.00;0.00;0.62;1.40;0.80;;;27.20;22.40;;;;;;2261234;61;20400;-62
2023/05/02 01:06:03;0.00;0.00;0.62;0.00;0.00;0.62;1.30;0.70;;;27.10;22.30;;;;;;2260518;61;20353;-62
2023/05/02 01:08:58;0.00;0.00;0.62;0.00;0.00;0.62;1.43;1.03;;;27.10;22.30;;;;;;2261281;61;20378;-63
2023/05/02 01:14:46;0.00;0.00;0.62;0.00;0.00;0.62;1.73;1.10;;;27.10;22.30;;;;;;2254661;61;20375;-62
2023/05/02 01:17:33;0.00;0.00;0.62;0.00;0.00;0.62;1.30;0.80;;;27.10;22.30;;;;;;2252950;61;20351;-63
2023/05/02 01:20:22;0.00;0.00;0.62;0.00;0.00;0.62;1.53;0.87;;;27.10;22.30;;;;;;2252975;61;20414;-63
2023/05/02 01:23:20;0.00;0.00;0.62;0.00;0.00;0.62;2.13;0.90;;;27.10;22.30;;;;;;2252547;61;20473;-63
2023/05/02 01:26:16;0.00;0.00;0.62;0.00;0.00;0.62;1.53;0.90;;;27.10;22.30;;;;;;2252425;61;20350;-63
2023/05/02 01:29:05;0.00;0.00;0.62;0.00;0.00;0.62;1.50;1.00;;;27.10;22.30;;;;;;2252377;61;20354;-63
2023/05/02 01:31:50;0.00;0.00;0.62;0.00;0.00;0.62;1.70;1.00;;;27.00;22.30;;;;;;2252587;61;20351;-63
2023/05/02 01:34:39;0.00;0.00;0.62;0.00;0.00;0.62;1.40;0.90;;;27.00;22.30;;;;;;2252717;61;20394;-63
2023/05/02 01:37:26;0.00;0.00;0.62;0.00;0.00;0.62;1.23;0.70;;;27.00;22.30;;;;;;2253015;61;20754;-63
2023/05/02 01:40:16;0.00;0.00;0.62;0.00;0.00;0.62;1.60;1.00;;;27.10;22.30;;;;;;2252902;61;20434;-63
2023/05/02 01:43:04;0.00;0.00;0.62;0.00;0.00;0.62;1.40;0.90;;;27.10;22.30;;;;;;2252470;61;20374;-63
2023/05/02 01:45:52;0.00;0.00;0.62;0.00;0.00;0.62;1.50;1.10;;;27.00;22.30;;;;;;2252397;61;20393;-63
2023/05/02 01:48:39;0.00;0.00;0.62;0.00;0.00;0.62;1.30;0.90;;;27.00;22.30;;;;;;2252377;61;20405;-63
2023/05/02 01:51:30;0.00;0.00;0.62;0.00;0.00;0.62;1.50;1.00;;;27.00;22.30;;;;;;2252164;61;20803;-63
2023/05/02 01:54:17;0.00;0.00;0.62;0.00;0.00;0.62;1.30;0.90;;;27.00;22.30;;;;;;2252288;61;20855;-63
2023/05/02 01:57:05;0.00;0.00;0.62;0.00;0.00;0.62;1.57;0.80;;;27.00;22.30;;;;;;2252827;61;20382;-63
2023/05/02 01:59:50;0.00;0.00;0.62;0.00;0.00;0.62;1.40;1.03;;;27.00;22.30;;;;;;2252535;61;20383;-63
2023/05/02 02:02:38;0.00;0.00;0.62;0.00;0.00;0.62;1.77;0.90;;;27.00;22.30;;;;;;2252784;61;20390;-63
2023/05/02 02:05:25;0.00;0.00;0.62;0.00;0.00;0.62;1.40;0.90;;;27.00;22.30;;;;;;2252807;61;20382;-63
2023/05/02 02:08:10;0.00;0.00;0.62;0.00;0.00;0.62;1.70;1.00;;;27.00;22.30;;;;;;2252793;61;20378;-63
2023/05/02 02:11:03;0.00;0.00;0.62;0.00;0.00;0.62;1.30;0.80;;;27.00;22.30;;;;;;2252281;61;20389;-63
2023/05/02 02:13:54;0.00;0.00;0.62;0.00;0.00;0.62;1.70;1.00;;;27.00;22.30;;;;;;2252636;61;20375;-63
2023/05/02 02:16:41;0.00;0.00;0.62;0.00;0.00;0.62;1.30;0.90;;;27.00;22.30;;;;;;2252793;61;20410;-63
2023/05/02 02:19:29;0.00;0.00;0.62;0.00;0.00;0.62;1.70;1.00;;;27.00;22.30;;;;;;2252316;61;20355;-63
2023/05/02 02:22:16;0.00;0.00;0.62;0.00;0.00;0.62;1.50;0.90;;;27.00;22.30;;;;;;2252778;61;20379;-62
2023/05/02 02:25:02;0.00;0.00;0.62;0.00;0.00;0.62;1.60;1.10;;;27.00;22.20;;;;;;2252722;61;20899;-63
2023/05/02 02:27:48;0.00;0.00;0.62;0.00;0.00;0.62;1.43;0.90;;;27.00;22.30;;;;;;2252346;61;20362;-63
2023/05/02 02:30:33;0.00;0.00;0.62;0.00;0.00;0.62;1.53;1.00;;;27.00;22.30;;;;;;2252269;61;20387;-63
2023/05/02 02:33:19;0.00;0.00;0.62;0.00;0.00;0.62;1.60;1.10;;;26.90;22.20;;;;;;2252652;61;20863;-63
2023/05/02 02:36:12;0.00;0.00;0.62;0.00;0.00;0.62;1.50;0.90;;;27.00;22.30;;;;;;2252705;61;20883;-63
2023/05/02 02:39:10;0.00;0.00;0.62;0.00;0.00;0.62;1.50;1.00;;;27.00;22.30;;;;;;2252672;61;20451;-63
2023/05/02 02:42:08;0.00;0.00;0.62;0.00;0.00;0.62;1.40;0.80;;;26.90;22.20;;;;;;2252307;61;20908;-63
2023/05/02 02:45:04;0.00;0.00;0.62;0.00;0.00;0.62;1.40;0.90;;;27.00;22.30;;;;;;2252643;61;20418;-63
2023/05/02 02:48:00;0.00;0.00;0.62;0.00;0.00;0.62;1.40;0.90;;;26.90;22.20;;;;;;2252688;61;20933;-62
2023/05/02 02:50:58;0.00;0.00;0.62;0.00;0.00;0.62;1.50;0.90;;;26.90;22.20;;;;;;2252434;61;20854;-63
2023/05/02 02:53:56;0.00;0.00;0.62;0.00;0.00;0.62;1.70;1.17;;;26.90;22.30;;;;;;2252546;61;20804;-62
2023/05/02 02:56:46;0.00;0.00;0.62;0.00;0.00;0.62;1.50;0.97;;;26.90;22.20;;;;;;2252703;61;20370;-63
2023/05/02 02:59:36;0.00;0.00;0.62;0.00;0.00;0.62;1.60;1.27;;;26.90;22.20;;;;;;2252755;61;20394;-63
2023/05/02 03:02:28;0.00;0.00;0.62;0.00;0.00;0.62;2.10;1.00;;;26.90;22.20;;;;;;2252635;61;20498;-63
2023/05/02 03:05:14;0.00;0.00;0.62;0.00;0.00;0.62;1.60;1.00;;;26.90;22.30;;;;;;2252068;61;20759;-63
2023/05/02 03:07:59;0.00;0.00;0.62;0.00;0.00;0.62;1.70;1.20;;;26.90;22.30;;;;;;2252569;61;20350;-63
2023/05/02 03:10:46;0.00;0.00;0.62;0.00;0.00;0.62;1.40;0.90;;;26.90;22.30;;;;;;2252302;61;20386;-63
2023/05/02 03:13:31;0.00;0.00;0.62;0.00;0.00;0.62;1.30;0.90;;;26.90;22.30;;;;;;2252708;61;20876;-63
2023/05/02 03:16:40;0.00;0.00;0.62;0.00;0.00;0.62;1.37;0.93;;;26.90;22.30;;;;;;2252119;61;20437;-63
2023/05/02 03:19:30;0.00;0.00;0.62;0.00;0.00;0.62;1.93;1.07;;;26.90;22.30;;;;;;2242825;61;20386;-63
2023/05/02 03:22:15;0.00;0.00;0.62;0.00;0.00;0.62;1.30;0.90;;;26.80;22.20;;;;;;2252118;61;20410;-62
2023/05/02 03:24:59;0.00;0.00;0.62;0.00;0.00;0.62;1.50;0.90;;;26.80;22.20;;;;;;2252306;61;20351;-63
2023/05/02 03:27:46;0.00;0.00;0.62;0.00;0.00;0.62;1.60;0.90;;;26.90;22.30;;;;;;2252096;61;20351;-63
2023/05/02 03:30:32;0.00;0.00;0.62;0.00;0.00;0.62;1.87;1.00;;;26.80;22.20;;;;;;2252158;61;20961;-63
2023/05/02 03:33:16;0.00;0.00;0.62;0.00;0.00;0.62;1.50;0.80;;;26.80;22.20;;;;;;2252084;61;20433;-63
2023/05/02 03:36:04;0.00;0.00;0.62;0.00;0.00;0.62;1.40;1.00;;;26.80;22.20;;;;;;2252308;61;20359;-63
2023/05/02 03:38:49;0.00;0.00;0.62;0.00;0.00;0.62;1.50;1.10;;;26.80;22.20;;;;;;2252201;61;20358;-63
2023/05/02 03:41:34;0.00;0.00;0.62;0.00;0.00;0.62;1.70;1.10;;;26.80;22.20;;;;;;2251945;61;20385;-63
2023/05/02 03:44:26;0.00;0.00;0.62;0.00;0.00;0.62;1.50;0.97;;;26.80;22.20;;;;;;2252023;61;20383;-63
2023/05/02 03:47:12;0.00;0.00;0.62;0.00;0.00;0.62;1.30;0.80;;;26.80;22.20;;;;;;2252638;61;20405;-63
2023/05/02 03:49:59;0.00;0.00;0.62;0.00;0.00;0.62;1.60;1.10;;;26.80;22.20;;;;;;2252058;61;20471;-63
2023/05/02 03:52:45;0.00;0.00;0.62;0.00;0.00;0.62;1.70;1.10;;;26.80;22.20;;;;;;2252164;61;20979;-63
2023/05/02 03:55:31;0.00;0.00;0.62;0.00;0.00;0.62;1.50;1.00;;;26.80;22.20;;;;;;2252146;61;20350;-63
2023/05/02 03:58:16;0.00;0.00;0.62;0.00;0.00;0.62;1.40;1.10;;;26.80;22.20;;;;;;2252850;61;20350;-63
2023/05/02 04:01:13;0.00;0.00;0.62;0.00;0.00;0.62;1.40;0.87;;;26.80;22.20;;;;;;2252646;61;20409;-63
2023/05/02 04:03:58;0.00;0.00;0.62;0.00;0.00;0.62;1.30;0.90;;;26.80;22.20;;;;;;2252969;61;20355;-63
2023/05/02 04:06:45;0.00;0.00;0.62;0.00;0.00;0.62;1.60;1.10;;;26.80;22.20;;;;;;2252842;61;20394;-63
2023/05/02 04:09:30;0.00;0.00;0.62;0.00;0.00;0.62;1.60;1.20;;;26.80;22.20;;;;;;2253215;61;20911;-63
2023/05/02 04:12:24;0.00;0.00;0.62;0.00;0.00;0.62;1.53;1.00;;;26.80;22.30;;;;;;2252748;61;20344;-63
2023/05/02 04:15:10;0.00;0.00;0.62;0.00;0.00;0.62;1.73;1.20;;;26.80;22.20;;;;;;2252969;61;20347;-63
2023/05/02 04:17:58;0.00;0.00;0.62;0.00;0.00;0.62;1.70;1.33;;;26.80;22.80;;;;;;2252539;61;20868;-63
2023/05/02 04:20:44;0.00;0.00;0.62;0.00;0.00;0.62;1.40;0.87;;;26.80;22.30;;;;;;2252524;61;20407;-63
2023/05/02 04:23:30;0.00;0.00;0.62;0.00;0.00;0.62;1.90;1.13;;;26.70;22.20;;;;;;2249902;61;20437;-63
2023/05/02 04:26:18;0.00;0.00;0.62;0.00;0.00;0.62;1.70;1.20;;;26.80;22.20;;;;;;2252551;61;20386;-63
2023/05/02 04:29:15;0.00;0.00;0.62;0.00;0.00;0.62;1.60;1.10;;;26.70;22.20;;;;;;2252328;61;20347;-61
2023/05/02 04:32:00;0.00;0.00;0.62;0.00;0.00;0.62;1.73;1.17;;;26.70;22.20;;;;;;2252589;61;20417;-63
2023/05/02 04:34:48;0.00;0.00;0.62;0.00;0.00;0.62;2.57;1.10;;;26.70;22.20;;;;;;2252409;61;20351;-62
2023/05/02 04:37:34;0.00;0.00;0.62;0.00;0.00;0.62;1.93;0.87;;;26.70;22.20;;;;;;2252571;61;20864;-63
2023/05/02 04:40:19;0.00;0.00;0.62;0.00;0.00;0.62;1.40;0.97;;;26.70;22.20;;;;;;2252343;61;20433;-62
2023/05/02 04:43:07;0.00;0.00;0.62;0.00;0.00;0.62;1.60;1.10;;;26.70;22.20;;;;;;2252204;61;20375;-63
2023/05/02 04:46:03;0.00;0.00;0.62;0.00;0.00;0.62;1.60;1.03;;;26.70;22.30;;;;;;2252441;61;20367;-63
2023/05/02 04:48:52;0.00;0.00;0.62;0.00;0.00;0.62;1.63;1.17;;;26.70;22.20;;;;;;2252540;61;20611;-63
2023/05/02 04:51:39;0.00;0.00;0.62;0.00;0.00;0.62;1.60;1.23;;;26.70;22.30;;;;;;2252284;61;20429;-63
2023/05/02 04:54:24;0.00;0.00;0.62;0.00;0.00;0.62;2.50;1.27;;;26.70;22.20;;;;;;2252397;61;20908;-62
2023/05/02 04:57:09;0.00;0.00;0.62;0.00;0.00;0.62;1.60;1.13;;;26.70;22.30;;;;;;2253068;61;20395;-63
2023/05/02 04:59:56;0.00;0.00;0.62;0.00;0.00;0.62;1.43;0.87;;;26.70;22.30;;;;;;2252600;61;20382;-63
2023/05/02 05:02:42;0.00;0.00;0.62;0.00;0.00;0.62;1.60;1.10;;;26.70;22.30;;;;;;2252523;61;20434;-62
2023/05/02 05:05:29;0.00;0.00;0.62;0.00;0.00;0.62;1.83;1.10;;;26.70;22.30;;;;;;2252564;61;20355;-63
2023/05/02 05:08:16;0.00;0.00;0.62;0.00;0.00;0.62;1.63;0.93;;;26.70;22.30;;;;;;2252265;61;20391;-63
2023/05/02 05:11:01;0.00;0.00;0.62;0.00;0.00;0.62;1.63;1.13;;;26.70;22.30;;;;;;2252574;61;20448;-63
2023/05/02 05:13:45;0.00;0.00;0.62;0.00;0.00;0.62;1.50;1.00;;;26.70;22.30;;;;;;2252460;61;20371;-62
2023/05/02 05:16:32;0.00;0.00;0.62;0.00;0.00;0.62;1.30;0.90;;;26.70;22.30;;;;;;2252689;61;20867;-62
2023/05/02 05:19:17;0.00;0.00;0.62;0.00;0.00;0.62;1.60;1.10;;;26.60;22.20;;;;;;2252373;61;20370;-62
2023/05/02 05:22:02;0.00;0.00;0.62;0.00;0.00;0.62;1.30;1.00;;;26.60;22.20;;;;;;2252718;61;20445;-62
2023/05/02 05:24:52;0.00;0.00;0.62;0.00;0.00;0.62;1.60;1.00;;;26.60;22.20;;;;;;2252430;61;20777;-62
2023/05/02 05:27:38;0.00;0.00;0.62;0.00;0.00;0.62;1.60;1.10;;;26.60;22.20;;;;;;2252665;61;20410;-62
2023/05/02 05:30:24;0.00;0.00;0.62;0.00;0.00;0.62;1.87;1.30;;;26.60;22.20;;;;;;2252491;61;20429;-62
2023/05/02 05:33:09;0.00;0.00;0.62;0.00;0.00;0.62;1.50;1.00;;;26.60;22.20;;;;;;2252639;61;20449;-62
2023/05/02 05:35:56;0.00;0.00;0.62;0.00;0.00;0.62;1.70;1.17;;;26.60;22.20;;;;;;2253069;61;20372;-62
2023/05/02 05:38:41;0.00;0.00;0.62;0.00;0.00;0.62;1.77;1.00;;;26.60;22.20;;;;;;2253123;61;20449;-62
2023/05/02 05:41:29;0.00;0.00;0.62;0.00;0.00;0.62;2.13;1.20;;;26.60;22.30;;;;;;2252345;61;20466;-63
2023/05/02 05:44:21;0.00;0.00;0.62;0.00;0.00;0.62;1.60;0.90;;;26.60;22.20;;;;;;2252489;61;20355;-62
2023/05/02 05:47:06;0.00;0.00;0.62;0.00;0.00;0.62;1.50;0.90;;;26.60;22.20;;;;;;2252445;61;20354;-62
2023/05/02 05:49:52;0.00;0.00;0.62;0.00;0.00;0.62;1.57;1.10;;;26.60;22.30;;;;;;2252488;61;20938;-63
2023/05/02 05:52:37;0.00;0.00;0.62;0.00;0.00;0.62;1.67;1.03;;;26.60;22.30;;;;;;2252323;61;20927;-63
2023/05/02 05:55:22;0.00;0.00;0.62;0.00;0.00;0.62;1.60;1.10;;;26.60;22.20;;;;;;2252884;61;20351;-62
2023/05/02 05:58:08;0.00;0.00;0.62;0.00;0.00;0.62;1.57;1.00;;;26.60;22.30;;;;;;2252751;61;20776;-63
2023/05/02 06:00:54;0.00;0.00;0.62;0.00;0.00;0.62;1.40;1.00;;;26.60;22.30;;;;;;2252256;61;20386;-63
2023/05/02 06:03:39;0.00;0.00;0.62;0.00;0.00;0.62;1.70;0.90;;;26.60;22.30;;;;;;2252740;61;20422;-63
2023/05/02 06:06:24;0.00;0.00;0.62;0.00;0.00;0.62;1.63;1.07;;;26.60;22.30;;;;;;2252595;61;20514;-63
2023/05/02 06:09:08;0.00;0.00;0.62;0.00;0.00;0.62;1.50;1.10;;;26.60;22.30;;;;;;2252374;61;20378;-63
2023/05/02 06:11:54;0.00;0.00;0.62;0.00;0.00;0.62;1.50;0.90;;;26.60;22.30;;;;;;2252428;61;20351;-63
2023/05/02 06:14:41;0.00;0.00;0.62;0.00;0.00;0.62;1.60;0.90;;;26.60;22.30;;;;;;2252312;61;20377;-63
2023/05/02 06:17:27;0.00;0.00;0.62;0.00;0.00;0.62;1.30;0.80;;;26.60;22.30;;;;;;2252427;61;20401;-62
2023/05/02 06:20:11;0.00;0.00;0.62;0.00;0.00;0.62;1.70;1.20;;;26.50;22.20;;;;;;2252673;61;20429;-62
2023/05/02 06:22:56;0.00;0.00;0.62;0.00;0.00;0.62;1.60;1.00;;;26.60;22.30;;;;;;2252338;61;20391;-62
2023/05/02 06:25:41;0.00;0.00;0.62;0.00;0.00;0.62;1.50;1.00;;;26.50;22.30;;;;;;2252983;61;20387;-63
2023/05/02 06:28:26;0.00;0.00;0.62;0.00;0.00;0.62;1.47;0.93;;;26.60;22.30;;;;;;2252759;61;20401;-63
2023/05/02 06:31:12;0.00;0.00;0.62;0.00;0.00;0.62;1.43;0.90;;;26.60;22.30;;;;;;2252572;61;20440;-62
2023/05/02 06:33:57;0.00;0.00;0.62;0.00;0.00;0.62;1.93;1.13;;;26.60;22.30;;;;;;2252741;61;20374;-62
2023/05/02 06:36:41;0.00;0.00;0.62;0.00;0.00;0.62;1.73;1.20;;;26.50;22.20;;;;;;2252751;61;20402;-63
2023/05/02 06:42:14;0.00;0.00;0.62;0.00;0.00;0.62;1.80;1.20;;;26.50;22.30;;;;;;2246475;61;20388;-62
2023/05/02 06:44:59;0.00;0.00;0.62;0.00;0.00;0.62;2.20;1.70;;;26.60;22.30;;;;;;2244504;61;20433;-62
2023/05/02 06:47:45;0.00;0.00;0.62;0.00;0.00;0.62;2.50;1.70;;;26.50;22.40;;;;;;2244638;61;20829;-62
2023/05/02 06:50:44;0.00;0.00;0.62;0.00;0.00;0.62;2.53;1.80;;;26.50;22.30;;;;;;2293448;40;20436;-63
2023/05/02 06:53:29;0.00;0.00;0.62;0.00;0.00;0.62;2.10;1.83;;;26.50;22.30;;;;;;2262758;61;20376;-63
2023/05/02 06:56:14;0.00;0.00;0.62;0.00;0.00;0.62;3.00;2.20;;;26.50;22.30;;;;;;2260623;61;20352;-61
2023/05/02 06:58:58;0.00;0.00;0.62;0.00;0.00;0.62;3.77;2.33;;;26.50;22.30;;;;;;2260613;61;20881;-62
2023/05/02 07:01:43;0.00;0.00;0.62;0.00;0.00;0.62;2.60;2.07;;;26.50;22.30;;;;;;2260782;61;20956;-63
2023/05/02 07:04:30;0.00;0.00;0.62;0.00;0.00;0.62;3.27;2.37;;;26.50;22.30;;;;;;2260631;61;20353;-63
2023/05/02 07:07:17;0.00;0.00;0.62;0.00;0.00;0.62;3.53;2.70;;;26.50;22.30;;;;;;2260692;61;20357;-62
2023/05/02 07:10:02;0.00;0.00;0.62;0.00;0.00;0.62;2.93;2.37;;;26.50;22.30;;;;;;2260828;61;20385;-62
2023/05/02 07:12:47;0.00;0.00;0.62;0.00;0.00;0.62;3.73;2.20;;;26.50;22.30;;;;;;2260666;61;20345;-62
2023/05/02 07:15:31;0.00;0.00;0.62;0.00;0.00;0.62;3.03;2.73;;;26.50;22.30;;;;;;2260607;61;20345;-62
2023/05/02 07:18:16;0.00;0.00;0.62;0.00;0.00;0.62;3.33;2.50;;;26.50;22.30;;;;;;2260650;61;20381;-63
2023/05/02 07:21:02;0.00;0.00;0.62;0.00;0.00;0.62;2.90;2.30;;;26.50;22.30;;;;;;2260522;61;20824;-62
2023/05/02 07:23:47;0.00;0.00;0.62;0.00;0.00;0.62;3.20;2.90;;;26.50;22.30;;;;;;2260717;61;20426;-63
2023/05/02 07:26:32;0.00;0.00;0.62;0.00;0.00;0.62;3.93;3.10;;;26.50;22.80;;;;;;2260692;61;20381;-62
2023/05/02 07:29:17;0.00;0.00;0.62;0.00;0.00;0.62;3.50;3.10;;;26.50;22.30;;;;;;2260604;61;20353;-63
2023/05/02 07:32:02;0.00;0.00;0.62;0.00;0.00;0.62;4.10;2.87;;;26.50;22.30;;;;;;2260898;61;20429;-63
2023/05/02 07:34:47;0.00;0.00;0.62;0.00;0.00;0.62;3.40;2.67;;;26.50;22.30;;;;;;2261588;61;20356;-63
2023/05/02 07:37:34;0.00;0.00;0.62;0.00;0.00;0.62;3.37;3.07;;;26.50;22.30;;;;;;2261142;61;20990;-63
2023/05/02 07:40:19;0.00;0.00;0.62;0.00;0.00;0.62;3.57;2.87;;;26.50;22.30;;;;;;2261310;61;20464;-63
2023/05/02 07:43:03;0.00;0.00;0.62;0.00;0.00;0.62;3.03;2.60;;;26.50;22.30;;;;;;2261374;61;20852;-63
2023/05/02 07:45:48;0.00;0.00;0.62;0.00;0.00;0.62;3.40;2.87;;;26.50;22.30;;;;;;2260989;61;20476;-63
2023/05/02 07:48:33;0.00;0.00;0.62;0.00;0.00;0.62;3.87;3.03;;;26.50;22.30;;;;;;2261232;61;20373;-63
2023/05/02 07:51:20;0.00;0.00;0.62;0.00;0.00;0.62;3.23;2.80;;;26.50;22.30;;;;;;2261237;61;21036;-63
2023/05/02 07:54:15;0.00;0.00;0.62;0.00;0.00;0.62;3.87;3.20;;;26.40;22.20;;;;;;2261310;61;20904;-62
2023/05/02 07:57:02;0.00;0.00;0.62;0.00;0.00;0.62;3.73;2.70;;;26.40;22.20;;;;;;2261527;61;20354;-62
2023/05/02 07:59:47;0.00;0.00;0.62;0.00;0.00;0.62;3.90;3.27;;;26.40;22.20;;;;;;2261245;61;20404;-63
2023/05/02 08:02:32;0.00;0.00;0.62;0.00;0.00;0.62;3.30;2.90;;;26.40;22.20;;;;;;2261275;61;20376;-63
2023/05/02 08:05:16;0.00;0.00;0.62;0.00;0.00;0.62;3.77;2.70;;;26.50;22.30;;;;;;2261314;61;20404;-63
2023/05/02 08:08:01;0.00;0.00;0.62;0.00;0.00;0.62;3.27;2.50;;;26.50;22.30;;;;;;2261589;61;20749;-63
2023/05/02 08:10:50;0.00;0.00;0.62;0.00;0.00;0.62;3.67;2.80;;;26.50;22.30;;;;;;2261128;61;20389;-62
2023/05/02 08:13:35;0.00;0.00;0.62;0.00;0.00;0.62;3.73;2.50;;;26.40;22.20;;;;;;2261186;61;20904;-63
2023/05/02 08:16:20;0.00;0.00;0.62;0.00;0.00;0.62;3.13;2.80;;;26.40;22.20;;;;;;2261248;61;20399;-63
2023/05/02 08:19:05;0.00;0.00;0.62;0.00;0.00;0.62;4.60;3.27;;;26.40;22.20;;;;;;2261309;61;20353;-63
2023/05/02 08:21:49;0.00;0.00;0.62;0.00;0.00;0.62;3.90;2.67;;;26.40;22.20;;;;;;2260714;61;20381;-63
2023/05/02 08:24:34;0.00;0.00;0.62;0.00;0.00;0.62;4.03;3.20;;;26.40;22.30;;;;;;2261360;61;20361;-62
2023/05/02 08:27:20;0.00;0.00;0.62;0.00;0.00;0.62;4.37;3.17;;;26.40;22.30;;;;;;2261263;61;20393;-63
2023/05/02 08:30:07;0.00;0.00;0.62;0.00;0.00;0.62;2.97;2.47;;;26.40;22.20;;;;;;2261238;61;20385;-61
2023/05/02 08:32:52;0.00;0.00;0.62;0.00;0.00;0.62;4.70;3.77;;;26.40;22.30;;;;;;2261336;61;20854;-63
2023/05/02 08:35:36;0.00;0.00;0.62;0.00;0.00;0.62;4.03;3.17;;;26.40;22.30;;;;;;2261218;61;20381;-62
2023/05/02 08:38:21;0.00;0.00;0.62;0.00;0.00;0.62;3.67;2.80;;;26.40;22.30;;;;;;2261065;61;20372;-63
2023/05/02 08:41:10;0.00;0.00;0.62;0.00;0.00;0.62;3.63;3.10;;;26.40;22.30;;;;;;2261307;61;20427;-63
2023/05/02 08:43:57;0.00;0.00;0.62;0.00;0.00;0.62;3.60;2.90;;;26.40;22.30;;;;;;2260569;61;20377;-62
2023/05/02 08:46:43;0.00;0.00;0.62;0.00;0.00;0.62;3.20;2.53;;;26.40;22.30;;;;;;2261530;61;20484;-63
2023/05/02 08:49:30;0.00;0.00;0.62;0.00;0.00;0.62;3.47;2.70;;;26.40;22.30;;;;;;2260968;61;20368;-62
2023/05/02 08:52:16;0.00;0.00;0.62;0.00;0.00;0.62;3.30;2.67;;;26.40;22.30;;;;;;2261061;61;20780;-62
2023/05/02 08:55:02;0.00;0.00;0.62;0.00;0.00;0.62;5.93;3.20;;;26.40;22.30;;;;;;2260778;61;20437;-62
2023/05/02 08:57:48;0.00;0.00;0.62;0.00;0.00;0.62;3.00;2.53;;;26.40;22.30;;;;;;2261235;61;20403;-63
2023/05/02 09:00:39;0.00;0.00;0.62;0.00;0.00;0.62;3.50;2.60;;;26.40;22.30;;;;;;2260985;61;20515;-65
2023/05/02 09:03:30;0.00;0.00;0.62;0.00;0.00;0.62;3.27;2.67;;;26.40;22.30;;;;;;2260918;61;20424;-64
2023/05/02 09:06:17;0.00;0.00;0.62;0.00;0.00;0.62;3.27;2.50;;;26.40;22.30;;;;;;2260418;61;20463;-64
2023/05/02 09:09:02;0.00;0.00;0.62;0.00;0.00;0.62;3.00;2.67;;;26.40;22.30;;;;;;2261163;61;20802;-62
2023/05/02 09:11:49;0.00;0.00;0.62;0.00;0.00;0.62;2.40;2.10;;;26.40;22.30;;;;;;2260993;61;20992;-63
2023/05/02 09:14:34;0.00;0.00;0.62;0.00;0.00;0.62;3.20;2.90;;;26.40;22.30;;;;;;2261178;61;20413;-65
2023/05/02 09:17:20;0.00;0.00;0.62;0.00;0.00;0.62;3.20;2.40;;;26.40;22.30;;;;;;2260945;61;20348;-65
2023/05/02 09:20:07;0.00;0.00;0.62;0.00;0.00;0.62;3.47;2.80;;;26.40;22.30;;;;;;2260857;61;20491;-65
2023/05/02 09:22:52;0.00;0.00;0.62;0.00;0.00;0.62;3.30;2.87;;;26.40;22.30;;;;;;2260788;61;20435;-65
2023/05/02 09:25:37;0.00;0.00;0.62;0.00;0.00;0.62;3.77;2.73;;;26.40;22.30;;;;;;2261090;61;20349;-62
2023/05/02 09:28:39;0.00;0.00;0.62;0.00;0.00;0.62;3.93;2.80;;;26.40;22.20;;;;;;2260951;61;20422;-62
2023/05/02 09:31:26;0.00;0.00;0.62;0.00;0.00;0.62;3.37;2.93;;;26.40;22.30;;;;;;2261050;61;20388;-65
2023/05/02 09:34:14;0.00;0.00;0.62;0.00;0.00;0.62;3.00;2.23;;;26.40;22.30;;;;;;2261024;61;20365;-65
2023/05/02 09:37:00;0.00;0.00;0.62;0.00;0.00;0.62;3.60;2.90;;;26.40;22.30;;;;;;2261160;61;20361;-63
2023/05/02 09:40:05;0.00;0.00;0.62;0.00;0.00;0.62;3.80;2.57;;;26.40;22.30;;;;;;2260823;61;20396;-63
2023/05/02 09:42:50;0.00;0.00;0.62;0.00;0.00;0.62;4.47;3.10;;;26.40;22.30;;;;;;2260873;61;20377;-65
2023/05/02 09:45:35;0.00;0.00;0.62;0.00;0.00;0.62;4.40;2.90;;;26.40;22.30;;;;;;2260986;61;20769;-63
2023/05/02 09:48:19;0.00;0.00;0.62;0.00;0.00;0.62;3.77;3.10;;;26.40;22.30;;;;;;2261082;61;20393;-63
2023/05/02 09:51:16;0.00;0.00;0.62;0.00;0.00;0.62;3.40;2.73;;;26.40;22.30;;;;;;2260225;61;20381;-62
2023/05/02 09:54:01;0.00;0.00;0.62;0.00;0.00;0.62;3.30;2.60;;;26.40;22.30;;;;;;2260392;61;20373;-63
2023/05/02 09:56:55;0.00;0.00;0.62;0.00;0.00;0.62;4.17;2.90;;;26.40;22.30;;;;;;2260692;61;20388;-63
2023/05/02 09:59:39;0.00;0.00;0.62;0.00;0.00;0.62;3.63;2.83;;;26.40;22.30;;;;;;2274954;40;20342;-62
2023/05/02 10:02:25;0.00;0.00;0.62;0.00;0.00;0.62;3.37;2.57;;;26.40;22.30;;;;;;2258127;61;20502;-63
2023/05/02 10:05:10;0.00;0.00;0.62;0.00;0.00;0.62;3.30;2.67;;;26.40;22.30;;;;;;2257198;61;20345;-63
2023/05/02 10:07:56;0.00;0.00;0.62;0.00;0.00;0.62;3.43;2.87;;;26.30;22.20;;;;;;2256867;61;20346;-62
2023/05/02 10:10:46;0.00;0.00;0.62;0.00;0.00;0.62;3.27;2.77;;;26.40;22.30;;;;;;2256968;61;20377;-63
2023/05/02 10:13:33;0.00;0.00;0.62;0.00;0.00;0.62;3.20;2.73;;;26.40;22.40;;;;;;2256756;61;20875;-63
2023/05/02 10:16:27;0.00;0.00;0.62;0.00;0.00;0.62;3.53;2.83;;;26.40;22.30;;;;;;2256896;61;20408;-63
2023/05/02 10:19:21;0.00;0.00;0.62;0.00;0.00;0.62;3.67;3.23;;;26.40;22.30;;;;;;2257039;61;20366;-63
2023/05/02 10:22:07;0.00;0.00;0.62;0.00;0.00;0.62;3.23;2.53;;;26.30;22.30;;;;;;2256906;61;20434;-63
2023/05/02 10:24:56;0.00;0.00;0.62;0.00;0.00;0.62;3.93;3.30;;;26.40;22.30;;;;;;2256826;61;20346;-63
2023/05/02 10:27:41;0.00;0.00;0.62;0.00;0.00;0.62;5.43;2.43;;;26.40;22.30;;;;;;2256869;61;20390;-63
2023/05/02 10:30:28;0.00;0.00;0.62;0.00;0.00;0.62;3.70;2.90;;;26.40;22.30;;;;;;2256868;61;20413;-63
2023/05/02 10:33:14;0.00;0.00;0.62;0.00;0.00;0.62;3.93;3.30;;;26.40;22.30;;;;;;2256889;61;20486;-62
2023/05/02 10:35:59;0.00;0.00;0.62;0.00;0.00;0.62;4.13;3.30;;;26.40;22.30;;;;;;2256907;61;20345;-62
2023/05/02 10:38:44;0.00;0.00;0.62;0.00;0.00;0.62;3.70;2.93;;;26.30;22.20;;;;;;2257025;61;20445;-63
2023/05/02 10:41:33;0.00;0.00;0.62;0.00;0.00;0.62;3.43;3.00;;;26.40;22.30;;;;;;2256658;61;20505;-63
2023/05/02 10:44:31;0.00;0.00;0.62;0.00;0.00;0.62;3.57;2.70;;;26.40;22.30;;;;;;2256644;61;20393;-63
2023/05/02 10:47:20;0.00;0.00;0.62;0.00;0.00;0.62;3.30;2.77;;;26.40;22.30;;;;;;2256759;61;20917;-63
2023/05/02 10:50:07;0.00;0.00;0.62;0.00;0.00;0.62;3.50;3.20;;;26.40;22.30;;;;;;2256650;61;20781;-63
2023/05/02 10:52:51;0.00;0.00;0.62;0.00;0.00;0.62;3.60;3.10;;;26.30;22.20;;;;;;2256985;61;20389;-63
2023/05/02 10:55:36;0.00;0.00;0.62;0.00;0.00;0.62;4.70;3.47;;;26.40;22.30;;;;;;2256987;61;20438;-63
2023/05/02 10:58:23;0.00;0.00;0.62;0.00;0.00;0.62;4.10;3.47;;;26.40;22.30;;;;;;2256647;61;20366;-63
2023/05/02 11:01:35;0.00;0.00;0.62;0.00;0.00;0.62;3.90;3.50;;;26.40;22.30;;;;;;2256761;61;20389;-63
2023/05/02 11:04:20;0.00;0.00;0.62;0.00;0.00;0.62;4.23;3.50;;;26.40;22.30;;;;;;2256544;61;20958;-62
2023/05/02 11:07:17;0.00;0.00;0.62;0.00;0.00;0.62;4.27;3.50;;;26.40;22.30;;;;;;2257075;61;20354;-63